sensor_id;sensor_type;location;lat;lon;timestamp;pressure;altitude;pressure_sealevel;temperature;humidity
54439;BME280;40347;53.848;27.498;2023-05-03T00:01:20;1016.9;;;11.5;75
54439;BME280;40347;53.848;27.498;2023-05-03T00:06:11;1016.9;;;11.4;74.9
54439;BME280;40347;53.848;27.498;2023-05-03T00:11:22;1017;;;11.3;75.6
54439;BME280;40347;53.848;27.498;2023-05-03T00:16:11;1017;;;11.3;75.9
54439;BME280;40347;53.848;27.498;2023-05-03T00:21:19;1017;;;11.2;75.9
54439;BME280;40347;53.848;27.498;2023-05-03T00:26:33;1017;;;11.2;76.2
54439;BME280;40347;53.848;27.498;2023-05-03T00:31:11;1017;;;11.1;76.4
54439;BME280;40347;53.848;27.498;2023-05-03T00:36:32;1017;;;11.2;76.1
54439;BME280;40347;53.848;27.498;2023-05-03T00:41:11;1017;;;11.2;76.4
54439;BME280;40347;53.848;27.498;2023-05-03T00:46:17;1017;;;11.2;76.4
54439;BME280;40347;53.848;27.498;2023-05-03T00:51:11;1017;;;11.3;75.8
54439;BME280;40347;53.848;27.498;2023-05-03T00:56:11;1016.9;;;11.4;75.3
54439;BME280;40347;53.848;27.498;2023-05-03T01:01:17;1016.9;;;11.4;75
54439;BME280;40347;53.848;27.498;2023-05-03T01:06:31;1016.9;;;11.4;74.9
54439;BME280;40347;53.848;27.498;2023-05-03T01:11:33;1017;;;11.3;75.1
54439;BME280;40347;53.848;27.498;2023-05-03T01:16:17;1017;;;11.2;75.5
54439;BME280;40347;53.848;27.498;2023-05-03T01:21:11;1017;;;11;76
54439;BME280;40347;53.848;27.498;2023-05-03T01:26:29;1017;;;11;75.7
54439;BME280;40347;53.848;27.498;2023-05-03T01:31:33;1017;;;11.1;75.8
54439;BME280;40347;53.848;27.498;2023-05-03T01:36:12;1017;;;11.1;75.9
54439;BME280;40347;53.848;27.498;2023-05-03T01:41:37;1017;;;11.1;76
54439;BME280;40347;53.848;27.498;2023-05-03T01:46:11;1017;;;11;76.2
54439;BME280;40347;53.848;27.498;2023-05-03T01:51:47;1017;;;11;75.8
54439;BME280;40347;53.848;27.498;2023-05-03T01:56:11;1016.9;;;11.1;75.5
54439;BME280;40347;53.848;27.498;2023-05-03T02:01:11;1016.9;;;11.1;75.6
54439;BME280;40347;53.848;27.498;2023-05-03T02:06:25;1016.9;;;11.1;75.6
54439;BME280;40347;53.848;27.498;2023-05-03T02:11:19;1016.9;;;11.2;75.7
54439;BME280;40347;53.848;27.498;2023-05-03T02:16:11;1017;;;11.2;75.6
54439;BME280;40347;53.848;27.498;2023-05-03T02:21:11;1017;;;11.2;75.9
54439;BME280;40347;53.848;27.498;2023-05-03T02:26:19;1016.9;;;11.1;75.9
54439;BME280;40347;53.848;27.498;2023-05-03T02:31:11;1016.8;;;11.1;76.1
54439;BME280;40347;53.848;27.498;2023-05-03T02:36:23;1016.9;;;10.9;76.1
54439;BME280;40347;53.848;27.498;2023-05-03T02:41:23;1016.9;;;10.9;76.3
54439;BME280;40347;53.848;27.498;2023-05-03T02:46:19;1017;;;10.9;76.8
54439;BME280;40347;53.848;27.498;2023-05-03T02:51:11;1017;;;10.8;76
54439;BME280;40347;53.848;27.498;2023-05-03T02:56:33;1017.2;;;10.7;74.7
54439;BME280;40347;53.848;27.498;2023-05-03T03:01:31;1017.3;;;10.5;74.1
54439;BME280;40347;53.848;27.498;2023-05-03T03:06:39;1017.5;;;10.3;74.2
54439;BME280;40347;53.848;27.498;2023-05-03T03:11:19;1017.6;;;9.8;74
54439;BME280;40347;53.848;27.498;2023-05-03T03:16:11;1017.6;;;9.3;75.1
54439;BME280;40347;53.848;27.498;2023-05-03T03:21:27;1017.6;;;9;76
54439;BME280;40347;53.848;27.498;2023-05-03T03:26:11;1017.7;;;8.7;76.8
54439;BME280;40347;53.848;27.498;2023-05-03T03:31:37;1017.7;;;8.6;76.9
54439;BME280;40347;53.848;27.498;2023-05-03T03:36:11;1017.7;;;8.5;76.5
54439;BME280;40347;53.848;27.498;2023-05-03T03:41:17;1017.8;;;8.2;76.6
54439;BME280;40347;53.848;27.498;2023-05-03T03:46:41;1017.9;;;7.8;76.8
54439;BME280;40347;53.848;27.498;2023-05-03T03:51:17;1017.9;;;7.6;76.3
54439;BME280;40347;53.848;27.498;2023-05-03T03:56:55;1018;;;7.5;75.4
54439;BME280;40347;53.848;27.498;2023-05-03T04:01:19;1018.1;;;7.5;73.9
54439;BME280;40347;53.848;27.498;2023-05-03T04:06:17;1018.2;;;7.5;73.1
54439;BME280;40347;53.848;27.498;2023-05-03T04:11:23;1018.2;;;7.6;73.4
54439;BME280;40347;53.848;27.498;2023-05-03T04:16:11;1018.2;;;7.6;73.8
54439;BME280;40347;53.848;27.498;2023-05-03T04:21:25;1018.3;;;7.4;75.4
54439;BME280;40347;53.848;27.498;2023-05-03T04:26:11;1018.2;;;7.2;77.3
54439;BME280;40347;53.848;27.498;2023-05-03T05:01:11;1018.5;;;7.3;78.6
54439;BME280;40347;53.848;27.498;2023-05-03T05:06:11;1018.7;;;7;79.3
54439;BME280;40347;53.848;27.498;2023-05-03T05:11:11;1018.8;;;7.1;79.3
54439;BME280;40347;53.848;27.498;2023-05-03T05:16:11;1018.7;;;7.2;80.1
54439;BME280;40347;53.848;27.498;2023-05-03T05:21:33;1018.8;;;7.2;80
54439;BME280;40347;53.848;27.498;2023-05-03T05:26:37;1018.8;;;7.3;79.8
54439;BME280;40347;53.848;27.498;2023-05-03T05:31:19;1018.8;;;7.4;79.2
54439;BME280;40347;53.848;27.498;2023-05-03T05:36:39;1018.9;;;7.3;79.2
54439;BME280;40347;53.848;27.498;2023-05-03T05:41:37;1018.9;;;6.9;79.1
54439;BME280;40347;53.848;27.498;2023-05-03T05:46:45;1019;;;7;79.5
54439;BME280;40347;53.848;27.498;2023-05-03T05:51:11;1019.1;;;7.1;79.2
54439;BME280;40347;53.848;27.498;2023-05-03T05:56:31;1019;;;7.3;79.3
54439;BME280;40347;53.848;27.498;2023-05-03T06:01:11;1019.1;;;7.1;78.7
54439;BME280;40347;53.848;27.498;2023-05-03T06:06:11;1019.2;;;7;78.5
54439;BME280;40347;53.848;27.498;2023-05-03T06:11:31;1019.3;;;6.7;78.7
54439;BME280;40347;53.848;27.498;2023-05-03T06:16:25;1019.3;;;6.9;78.8
54439;BME280;40347;53.848;27.498;2023-05-03T06:21:19;1019.2;;;7.1;78.1
54439;BME280;40347;53.848;27.498;2023-05-03T06:26:33;1019.4;;;7;76.8
54439;BME280;40347;53.848;27.498;2023-05-03T06:31:19;1019.4;;;6.9;77.3
54439;BME280;40347;53.848;27.498;2023-05-03T06:36:33;1019.4;;;6.9;77.3
54439;BME280;40347;53.848;27.498;2023-05-03T06:41:11;1019.4;;;7.1;77.2
54439;BME280;40347;53.848;27.498;2023-05-03T06:46:17;1019.4;;;7.2;76.5
54439;BME280;40347;53.848;27.498;2023-05-03T06:51:33;1019.5;;;7.4;75.9
54439;BME280;40347;53.848;27.498;2023-05-03T06:56:17;1019.6;;;7.4;75
54439;BME280;40347;53.848;27.498;2023-05-03T07:01:23;1019.7;;;7.5;74.1
54439;BME280;40347;53.848;27.498;2023-05-03T07:06:23;1019.7;;;7.7;73.7
54439;BME280;40347;53.848;27.498;2023-05-03T07:11:55;1019.8;;;7.9;72.9
54439;BME280;40347;53.848;27.498;2023-05-03T07:16:11;1019.9;;;8.3;72.2
54439;BME280;40347;53.848;27.498;2023-05-03T07:21:17;1019.9;;;8.7;70.4
54439;BME280;40347;53.848;27.498;2023-05-03T07:26:25;1019.9;;;9.2;68.8
54439;BME280;40347;53.848;27.498;2023-05-03T07:31:25;1020;;;9.5;66.5
54439;BME280;40347;53.848;27.498;2023-05-03T07:36:41;1020;;;9.8;65.3
54439;BME280;40347;53.848;27.498;2023-05-03T07:41:11;1020;;;10.4;65.7
54439;BME280;40347;53.848;27.498;2023-05-03T07:46:11;1020.1;;;10.9;61.9
54439;BME280;40347;53.848;27.498;2023-05-03T07:51:37;1020.1;;;10.7;59.8
54439;BME280;40347;53.848;27.498;2023-05-03T07:56:19;1020.1;;;10.6;60.9
54439;BME280;40347;53.848;27.498;2023-05-03T08:01:35;1020.1;;;10.8;60.9
54439;BME280;40347;53.848;27.498;2023-05-03T08:06:11;1020.1;;;10.6;59.6
54439;BME280;40347;53.848;27.498;2023-05-03T08:11:31;1020.2;;;10.5;60.8
54439;BME280;40347;53.848;27.498;2023-05-03T08:16:11;1020.2;;;10.7;59.9
54439;BME280;40347;53.848;27.498;2023-05-03T08:21:33;1020.2;;;10.5;58.2
54439;BME280;40347;53.848;27.498;2023-05-03T08:26:11;1020.3;;;10.6;58.9
54439;BME280;40347;53.848;27.498;2023-05-03T08:31:11;1020.3;;;10.4;55.2
54439;BME280;40347;53.848;27.498;2023-05-03T08:36:35;1020.3;;;10;55.1
54439;BME280;40347;53.848;27.498;2023-05-03T08:41:13;1020.3;;;10.1;56.8
54439;BME280;40347;53.848;27.498;2023-05-03T08:46:37;1020.3;;;9.9;53.8
54439;BME280;40347;53.848;27.498;2023-05-03T08:51:11;1020.3;;;10;54.9
54439;BME280;40347;53.848;27.498;2023-05-03T08:56:23;1020.4;;;10.4;55.1
54439;BME280;40347;53.848;27.498;2023-05-03T09:01:31;1020.4;;;10.8;51.7
54439;BME280;40347;53.848;27.498;2023-05-03T09:06:31;1020.3;;;11.5;50.2
54439;BME280;40347;53.848;27.498;2023-05-03T09:11:31;1020.3;;;11.9;48.9
54439;BME280;40347;53.848;27.498;2023-05-03T09:16:23;1020.4;;;12.3;49.1
54439;BME280;40347;53.848;27.498;2023-05-03T09:21:12;1020.5;;;13;49.7
54439;BME280;40347;53.848;27.498;2023-05-03T09:26:11;1020.4;;;13.8;49
54439;BME280;40347;53.848;27.498;2023-05-03T09:31:23;1020.3;;;14.5;48.5
54439;BME280;40347;53.848;27.498;2023-05-03T09:36:19;1020.3;;;15.1;47.5
54439;BME280;40347;53.848;27.498;2023-05-03T09:41:26;1020.3;;;15.3;44.2
54439;BME280;40347;53.848;27.498;2023-05-03T09:46:23;1020.3;;;15.3;43.8
54439;BME280;40347;53.848;27.498;2023-05-03T09:51:19;1020.5;;;15.2;44.4
54439;BME280;40347;53.848;27.498;2023-05-03T09:56:23;1020.5;;;15.2;44.5
54439;BME280;40347;53.848;27.498;2023-05-03T10:01:31;1020.5;;;15.3;43.4
54439;BME280;40347;53.848;27.498;2023-05-03T10:06:22;1020.4;;;15.2;44.7
54439;BME280;40347;53.848;27.498;2023-05-03T10:11:17;1020.4;;;15;43.6
54439;BME280;40347;53.848;27.498;2023-05-03T10:16:19;1020.4;;;14.6;43
54439;BME280;40347;53.848;27.498;2023-05-03T10:21:13;1020.5;;;14;42.8
54439;BME280;40347;53.848;27.498;2023-05-03T10:26:29;1020.5;;;13.3;45
54439;BME280;40347;53.848;27.498;2023-05-03T10:31:43;1020.5;;;12.8;44.2
54439;BME280;40347;53.848;27.498;2023-05-03T10:36:11;1020.5;;;12.5;45.2
54439;BME280;40347;53.848;27.498;2023-05-03T10:41:25;1020.5;;;12.3;45
54439;BME280;40347;53.848;27.498;2023-05-03T10:46:31;1020.6;;;12.2;46.1
54439;BME280;40347;53.848;27.498;2023-05-03T10:51:42;1020.6;;;12.3;46.1
54439;BME280;40347;53.848;27.498;2023-05-03T10:56:23;1020.5;;;12.3;45.7
54439;BME280;40347;53.848;27.498;2023-05-03T11:01:31;1020.6;;;12.3;44.9
54439;BME280;40347;53.848;27.498;2023-05-03T11:06:25;1020.6;;;12.4;44.9
54439;BME280;40347;53.848;27.498;2023-05-03T11:11:23;1020.6;;;12.8;45.1
54439;BME280;40347;53.848;27.498;2023-05-03T11:16:11;1020.6;;;13.1;45.1
54439;BME280;40347;53.848;27.498;2023-05-03T11:21:25;1020.5;;;13.3;44.4
54439;BME280;40347;53.848;27.498;2023-05-03T11:26:11;1020.6;;;13.3;43.5
54439;BME280;40347;53.848;27.498;2023-05-03T11:31:25;1020.6;;;13.2;43.2
54439;BME280;40347;53.848;27.498;2023-05-03T11:36:11;1020.6;;;13.4;43.6
54439;BME280;40347;53.848;27.498;2023-05-03T11:41:35;1020.6;;;13.8;43.9
54439;BME280;40347;53.848;27.498;2023-05-03T11:46:19;1020.5;;;14.3;42.6
54439;BME280;40347;53.848;27.498;2023-05-03T11:51:53;1020.5;;;14.5;41.8
54439;BME280;40347;53.848;27.498;2023-05-03T11:56:19;1020.6;;;13.9;40.2
54439;BME280;40347;53.848;27.498;2023-05-03T12:01:19;1020.6;;;13.3;42.3
54439;BME280;40347;53.848;27.498;2023-05-03T12:06:39;1020.5;;;13.4;42.8
54439;BME280;40347;53.848;27.498;2023-05-03T12:11:11;1020.5;;;13.5;41.6
54439;BME280;40347;53.848;27.498;2023-05-03T12:16:44;1020.5;;;13.6;39.6
54439;BME280;40347;53.848;27.498;2023-05-03T12:21:11;1020.4;;;13.7;41
54439;BME280;40347;53.848;27.498;2023-05-03T12:26:11;1020.4;;;13.6;38.5
54439;BME280;40347;53.848;27.498;2023-05-03T12:31:11;1020.5;;;13.5;36.4
54439;BME280;40347;53.848;27.498;2023-05-03T12:36:21;1020.5;;;13.4;37.7
54439;BME280;40347;53.848;27.498;2023-05-03T12:41:25;1020.5;;;13.4;36.6
54439;BME280;40347;53.848;27.498;2023-05-03T12:46:25;1020.4;;;13.5;38.5
54439;BME280;40347;53.848;27.498;2023-05-03T12:51:11;1020.4;;;13.6;39.3
54439;BME280;40347;53.848;27.498;2023-05-03T12:56:25;1020.4;;;13.6;36.5
54439;BME280;40347;53.848;27.498;2023-05-03T13:01:33;1020.4;;;13.6;37.9
54439;BME280;40347;53.848;27.498;2023-05-03T13:06:11;1020.4;;;13.6;37.5
54439;BME280;40347;53.848;27.498;2023-05-03T13:11:11;1020.4;;;13.6;38.3
54439;BME280;40347;53.848;27.498;2023-05-03T13:16:25;1020.4;;;13.5;35.8
54439;BME280;40347;53.848;27.498;2023-05-03T13:21:11;1020.4;;;13.5;37.2
54439;BME280;40347;53.848;27.498;2023-05-03T13:26:41;1020.4;;;13.5;36.9
54439;BME280;40347;53.848;27.498;2023-05-03T13:31:11;1020.4;;;13.6;37.2
54439;BME280;40347;53.848;27.498;2023-05-03T13:36:11;1020.3;;;13.7;37.5
54439;BME280;40347;53.848;27.498;2023-05-03T13:41:21;1020.3;;;13.7;37.4
54439;BME280;40347;53.848;27.498;2023-05-03T13:46:23;1020.3;;;13.8;36.4
54439;BME280;40347;53.848;27.498;2023-05-03T13:51:17;1020.3;;;13.7;35.3
54439;BME280;40347;53.848;27.498;2023-05-03T13:56:11;1020.3;;;13.3;33.1
54439;BME280;40347;53.848;27.498;2023-05-03T14:01:23;1020.4;;;13.1;34.3
54439;BME280;40347;53.848;27.498;2023-05-03T14:06:11;1020.4;;;13.2;34.8
54439;BME280;40347;53.848;27.498;2023-05-03T14:11:25;1020.3;;;13.4;36.2
54439;BME280;40347;53.848;27.498;2023-05-03T14:16:14;1020.3;;;13.4;36.7
54439;BME280;40347;53.848;27.498;2023-05-03T14:21:33;1020.4;;;13.4;35.9
54439;BME280;40347;53.848;27.498;2023-05-03T14:26:25;1020.4;;;13.5;36.6
54439;BME280;40347;53.848;27.498;2023-05-03T14:31:17;1020.4;;;13.6;36.3
54439;BME280;40347;53.848;27.498;2023-05-03T14:36:11;1020.5;;;13.6;35
54439;BME280;40347;53.848;27.498;2023-05-03T14:41:11;1020.5;;;13.5;34.8
54439;BME280;40347;53.848;27.498;2023-05-03T14:46:45;1020.5;;;13.5;36
54439;BME280;40347;53.848;27.498;2023-05-03T14:51:21;1020.5;;;13.5;36.4
54439;BME280;40347;53.848;27.498;2023-05-03T14:56:11;1020.5;;;13.5;35.2
54439;BME280;40347;53.848;27.498;2023-05-03T15:01:29;1020.5;;;13.3;34.3
54439;BME280;40347;53.848;27.498;2023-05-03T15:06:21;1020.5;;;13.2;35.1
54439;BME280;40347;53.848;27.498;2023-05-03T15:11:11;1020.5;;;13.3;36.3
54439;BME280;40347;53.848;27.498;2023-05-03T15:16:31;1020.6;;;13.3;36.4
54439;BME280;40347;53.848;27.498;2023-05-03T15:21:21;1020.6;;;13.2;36.7
54439;BME280;40347;53.848;27.498;2023-05-03T15:26:11;1020.7;;;13.1;36.2
54439;BME280;40347;53.848;27.498;2023-05-03T15:31:11;1020.8;;;12.9;35
54439;BME280;40347;53.848;27.498;2023-05-03T15:36:11;1020.8;;;12.8;35.8
54439;BME280;40347;53.848;27.498;2023-05-03T15:41:11;1020.8;;;12.6;36.5
54439;BME280;40347;53.848;27.498;2023-05-03T15:46:11;1020.8;;;12.5;35.6
54439;BME280;40347;53.848;27.498;2023-05-03T15:51:11;1020.9;;;12.4;36
54439;BME280;40347;53.848;27.498;2023-05-03T15:56:37;1020.9;;;12.3;36
54439;BME280;40347;53.848;27.498;2023-05-03T16:01:37;1020.9;;;12.3;36.4
54439;BME280;40347;53.848;27.498;2023-05-03T16:06:11;1020.9;;;12.2;36.4
54439;BME280;40347;53.848;27.498;2023-05-03T16:11:11;1020.9;;;12.1;36.5
54439;BME280;40347;53.848;27.498;2023-05-03T16:16:33;1020.9;;;12;36.1
54439;BME280;40347;53.848;27.498;2023-05-03T16:21:25;1021;;;11.9;36.5
54439;BME280;40347;53.848;27.498;2023-05-03T16:26:25;1021;;;11.8;37.1
54439;BME280;40347;53.848;27.498;2023-05-03T16:31:35;1021;;;11.8;37.3
54439;BME280;40347;53.848;27.498;2023-05-03T16:36:25;1021.1;;;11.7;37
54439;BME280;40347;53.848;27.498;2023-05-03T16:41:57;1021.1;;;11.6;37.8
54439;BME280;40347;53.848;27.498;2023-05-03T16:46:11;1021.1;;;11.6;36.5
54439;BME280;40347;53.848;27.498;2023-05-03T16:51:37;1021.1;;;11.6;36.4
54439;BME280;40347;53.848;27.498;2023-05-03T16:56:29;1021.2;;;11.5;36.4
54439;BME280;40347;53.848;27.498;2023-05-03T17:01:43;1021.3;;;11.4;36.9
54439;BME280;40347;53.848;27.498;2023-05-03T17:06:31;1021.3;;;11.3;37.1
54439;BME280;40347;53.848;27.498;2023-05-03T17:11:17;1021.3;;;11.3;37.1
54439;BME280;40347;53.848;27.498;2023-05-03T17:16:11;1021.4;;;11.3;37.2
54439;BME280;40347;53.848;27.498;2023-05-03T17:21:39;1021.4;;;11.2;37.8
54439;BME280;40347;53.848;27.498;2023-05-03T17:26:25;1021.4;;;11.1;37.1
54439;BME280;40347;53.848;27.498;2023-05-03T17:31:23;1021.4;;;10.9;37.5
54439;BME280;40347;53.848;27.498;2023-05-03T17:36:11;1021.5;;;10.9;38
54439;BME280;40347;53.848;27.498;2023-05-03T17:41:19;1021.5;;;10.8;38.4
54439;BME280;40347;53.848;27.498;2023-05-03T17:46:11;1021.6;;;10.7;38.4
54439;BME280;40347;53.848;27.498;2023-05-03T17:51:11;1021.6;;;10.6;38.8
54439;BME280;40347;53.848;27.498;2023-05-03T17:56:19;1021.7;;;10.5;39.1
54439;BME280;40347;53.848;27.498;2023-05-03T18:01:11;1021.7;;;10.4;39.5
54439;BME280;40347;53.848;27.498;2023-05-03T18:06:11;1021.8;;;10.3;39.8
54439;BME280;40347;53.848;27.498;2023-05-03T18:11:19;1021.9;;;10.2;39.9
54439;BME280;40347;53.848;27.498;2023-05-03T18:16:25;1021.9;;;10.2;40.1
54439;BME280;40347;53.848;27.498;2023-05-03T18:21:17;1022;;;10.1;40.7
54439;BME280;40347;53.848;27.498;2023-05-03T18:26:17;1022;;;10;41.2
54439;BME280;40347;53.848;27.498;2023-05-03T18:31:11;1022.1;;;9.8;41.8
54439;BME280;40347;53.848;27.498;2023-05-03T18:36:11;1022.1;;;9.7;41.7
54439;BME280;40347;53.848;27.498;2023-05-03T18:41:33;1022.2;;;9.6;42.2
54439;BME280;40347;53.848;27.498;2023-05-03T18:46:23;1022.2;;;9.5;42.6
54439;BME280;40347;53.848;27.498;2023-05-03T18:51:17;1022.2;;;9.4;43
54439;BME280;40347;53.848;27.498;2023-05-03T18:56:25;1022.1;;;9.3;42.9
54439;BME280;40347;53.848;27.498;2023-05-03T19:01:11;1022.2;;;9.3;42.8
54439;BME280;40347;53.848;27.498;2023-05-03T19:06:19;1022.2;;;9.2;44.2
54439;BME280;40347;53.848;27.498;2023-05-03T19:11:41;1022.2;;;9.1;44.8
54439;BME280;40347;53.848;27.498;2023-05-03T19:16:23;1022.2;;;9;44.4
54439;BME280;40347;53.848;27.498;2023-05-03T19:21:11;1022.2;;;8.9;44.9
54439;BME280;40347;53.848;27.498;2023-05-03T19:26:11;1022.3;;;8.8;45.5
54439;BME280;40347;53.848;27.498;2023-05-03T19:31:11;1022.3;;;8.7;45.6
54439;BME280;40347;53.848;27.498;2023-05-03T19:36:19;1022.3;;;8.7;45.8
54439;BME280;40347;53.848;27.498;2023-05-03T19:41:31;1022.4;;;8.6;45.5
54439;BME280;40347;53.848;27.498;2023-05-03T19:46:11;1022.4;;;8.6;45.8
54439;BME280;40347;53.848;27.498;2023-05-03T19:51:25;1022.4;;;8.5;45.6
54439;BME280;40347;53.848;27.498;2023-05-03T19:56:23;1022.5;;;8.5;46.7
54439;BME280;40347;53.848;27.498;2023-05-03T20:01:11;1022.5;;;8.4;47
54439;BME280;40347;53.848;27.498;2023-05-03T20:06:49;1022.5;;;8.3;47.2
54439;BME280;40347;53.848;27.498;2023-05-03T20:11:31;1022.5;;;8.2;47.2
54439;BME280;40347;53.848;27.498;2023-05-03T20:16:11;1022.5;;;8.1;46.9
54439;BME280;40347;53.848;27.498;2023-05-03T20:21:11;1022.5;;;8.1;47.5
54439;BME280;40347;53.848;27.498;2023-05-03T20:26:23;1022.5;;;8;47.9
54439;BME280;40347;53.848;27.498;2023-05-03T20:31:11;1022.5;;;8;48.1
54439;BME280;40347;53.848;27.498;2023-05-03T20:36:11;1022.5;;;7.9;48.2
54439;BME280;40347;53.848;27.498;2023-05-03T20:41:23;1022.5;;;7.8;48.2
54439;BME280;40347;53.848;27.498;2023-05-03T20:46:17;1022.5;;;7.8;48.2
54439;BME280;40347;53.848;27.498;2023-05-03T20:51:31;1022.5;;;7.8;48.4
54439;BME280;40347;53.848;27.498;2023-05-03T20:56:11;1022.5;;;7.7;48.5
54439;BME280;40347;53.848;27.498;2023-05-03T21:01:19;1022.5;;;7.7;48.9
54439;BME280;40347;53.848;27.498;2023-05-03T21:06:25;1022.5;;;7.6;49.4
54439;BME280;40347;53.848;27.498;2023-05-03T21:11:31;1022.5;;;7.5;49.2
54439;BME280;40347;53.848;27.498;2023-05-03T21:16:19;1022.5;;;7.5;49.7
54439;BME280;40347;53.848;27.498;2023-05-03T21:21:25;1022.4;;;7.5;50.1
54439;BME280;40347;53.848;27.498;2023-05-03T21:26:17;1022.4;;;7.4;50.3
54439;BME280;40347;53.848;27.498;2023-05-03T21:31:11;1022.4;;;7.3;50
54439;BME280;40347;53.848;27.498;2023-05-03T21:36:11;1022.4;;;7.3;50.3
54439;BME280;40347;53.848;27.498;2023-05-03T21:41:27;1022.5;;;7.2;50.6
54439;BME280;40347;53.848;27.498;2023-05-03T21:46:19;1022.4;;;7.1;51.4
54439;BME280;40347;53.848;27.498;2023-05-03T21:51:16;1022.5;;;7.1;51.5
54439;BME280;40347;53.848;27.498;2023-05-03T21:56:19;1022.4;;;7.1;51.7
54439;BME280;40347;53.848;27.498;2023-05-03T22:01:33;1022.4;;;7;52.1
54439;BME280;40347;53.848;27.498;2023-05-03T22:06:37;1022.4;;;6.9;52.8
54439;BME280;40347;53.848;27.498;2023-05-03T22:11:11;1022.4;;;6.8;53.3
54439;BME280;40347;53.848;27.498;2023-05-03T22:16:11;1022.4;;;6.8;53.4
54439;BME280;40347;53.848;27.498;2023-05-03T22:21:21;1022.4;;;6.8;53.6
54439;BME280;40347;53.848;27.498;2023-05-03T22:26:31;1022.4;;;6.7;53.7
54439;BME280;40347;53.848;27.498;2023-05-03T22:31:31;1022.4;;;6.6;53.9
54439;BME280;40347;53.848;27.498;2023-05-03T22:36:11;1022.4;;;6.6;54.3
54439;BME280;40347;53.848;27.498;2023-05-03T22:41:33;1022.5;;;6.5;55.3
54439;BME280;40347;53.848;27.498;2023-05-03T22:46:55;1022.5;;;6.4;56.4
54439;BME280;40347;53.848;27.498;2023-05-03T22:51:17;1022.5;;;6.4;56.8
54439;BME280;40347;53.848;27.498;2023-05-03T22:56:11;1022.5;;;6.2;57.6
54439;BME280;40347;53.848;27.498;2023-05-03T23:01:11;1022.5;;;6.1;58
54439;BME280;40347;53.848;27.498;2023-05-03T23:06:21;1022.5;;;6;58.6
54439;BME280;40347;53.848;27.498;2023-05-03T23:11:31;1022.5;;;5.9;58.9
54439;BME280;40347;53.848;27.498;2023-05-03T23:16:31;1022.5;;;5.9;59
54439;BME280;40347;53.848;27.498;2023-05-03T23:21:11;1022.5;;;5.9;58.9
54439;BME280;40347;53.848;27.498;2023-05-03T23:26:11;1022.4;;;5.8;59.3
54439;BME280;40347;53.848;27.498;2023-05-03T23:31:39;1022.4;;;5.7;59.3
54439;BME280;40347;53.848;27.498;2023-05-03T23:36:17;1022.5;;;5.7;59.6
54439;BME280;40347;53.848;27.498;2023-05-03T23:41:11;1022.5;;;5.7;59.6
54439;BME280;40347;53.848;27.498;2023-05-03T23:46:29;1022.5;;;5.6;59.5
54439;BME280;40347;53.848;27.498;2023-05-03T23:51:11;1022.4;;;5.6;59.2
54439;BME280;40347;53.848;27.498;2023-05-03T23:56:33;1022.4;;;5.6;59.3
